Time;durP1;ratioP1;P1;durP2;ratioP2;P2;SDS_P1;SDS_P2;PMS_P1;PMS_P2;Temp;Humidity;BMP_temperature;BMP_pressure;BME280_temperature;BME280_humidity;BME280_pressure;Samples;Min_cycle;Max_cycle;Signal;HPM_P1;HPM_P2
2022/04/14 00:01:46;;;;;;;5.23;4.60;;;;;;;12.30;43.44;99968.50;5090915;28;20275;-61
2022/04/14 00:04:13;;;;;;;6.10;4.13;;;;;;;12.22;43.74;99978.66;5090916;28;20678;-60
2022/04/14 00:06:40;;;;;;;4.50;4.10;;;;;;;12.18;43.69;99978.59;5090477;28;20210;-60
2022/04/14 00:09:07;;;;;;;5.73;4.17;;;;;;;12.13;43.51;99977.66;5090293;28;20196;-60
2022/04/14 00:11:33;;;;;;;4.73;4.30;;;;;;;12.05;44.23;99974.94;5090176;28;20227;-60
2022/04/14 00:14:00;;;;;;;4.90;4.40;;;;;;;11.97;44.44;99976.50;5090039;28;20317;-60
2022/04/14 00:16:29;;;;;;;5.70;4.73;;;;;;;12.01;44.47;99975.72;5090197;28;20187;-60
2022/04/14 00:18:56;;;;;;;4.50;3.87;;;;;;;12.02;44.23;99974.88;5090168;28;20550;-60
2022/04/14 00:21:22;;;;;;;5.05;4.45;;;;;;;12.06;43.79;99976.66;5088051;28;20442;-60
2022/04/14 00:23:49;;;;;;;4.30;3.90;;;;;;;11.94;44.24;99948.13;5090432;28;20186;-60
2022/04/14 00:26:17;;;;;;;4.70;3.93;;;;;;;12.10;44.33;99985.31;5090111;28;20191;-61
2022/04/14 00:28:46;;;;;;;5.73;4.37;;;;;;;12.01;44.64;99975.72;5090282;28;20199;-60
2022/04/14 00:31:12;;;;;;;6.67;4.10;;;;;;;11.99;44.85;99984.25;5090183;28;20221;-60
2022/04/14 00:33:41;;;;;;;4.40;4.00;;;;;;;11.97;44.85;99986.81;5090263;28;20230;-61
2022/04/14 00:36:07;;;;;;;4.45;4.05;;;;;;;11.96;45.23;99985.06;5095853;28;20441;-60
2022/04/14 00:38:34;;;;;;;4.73;4.23;;;;;;;12.03;44.46;99991.22;5110362;28;20310;-60
2022/04/14 00:41:02;;;;;;;4.17;3.87;;;;;;;12.04;44.61;99992.91;5110426;28;20190;-61
2022/04/14 00:43:30;;;;;;;5.93;4.87;;;;;;;11.97;44.36;99996.25;5110274;28;20291;-60
2022/04/14 00:45:59;;;;;;;4.47;4.07;;;;;;;11.93;44.56;99992.72;5110100;28;20737;-61
2022/04/14 00:48:26;;;;;;;4.80;4.40;;;;;;;11.88;45.43;99991.78;5109229;28;20281;-61
2022/04/14 00:50:54;;;;;;;5.37;3.90;;;;;;;11.84;45.75;99987.41;5087161;28;20222;-61
2022/04/14 00:53:22;;;;;;;6.47;4.57;;;;;;;11.78;45.59;99990.72;5089322;28;20183;-60
2022/04/14 00:55:49;;;;;;;5.97;4.43;;;;;;;11.72;45.78;99989.75;5089263;28;20179;-60
2022/04/14 00:58:17;;;;;;;4.67;4.27;;;;;;;11.61;45.96;99971.50;5089111;28;20244;-60
2022/04/14 01:00:44;;;;;;;5.53;4.80;;;;;;;11.63;46.41;99984.38;5089372;28;20232;-60
2022/04/14 01:03:11;;;;;;;4.63;4.23;;;;;;;11.57;46.51;99981.69;5089046;28;20205;-60
2022/04/14 01:05:38;;;;;;;6.40;4.87;;;;;;;11.48;47.30;99990.09;5086884;28;20230;-58
2022/04/14 01:08:08;;;;;;;6.73;5.43;;;;;;;11.44;46.95;99992.56;5089481;28;20194;-58
2022/04/14 01:10:37;;;;;;;7.40;5.40;;;;;;;11.41;47.31;99992.50;5089128;28;20230;-58
2022/04/14 01:13:04;;;;;;;6.40;5.13;;;;;;;11.31;47.36;99990.59;5089011;28;20225;-57
2022/04/14 01:15:31;;;;;;;8.73;5.97;;;;;;;11.26;47.52;99998.22;5088825;28;20194;-58
2022/04/14 01:17:58;;;;;;;7.17;6.23;;;;;;;11.17;48.11;99993.75;5088857;28;20193;-58
2022/04/14 01:20:25;;;;;;;11.00;6.47;;;;;;;11.15;48.62;99991.97;5088735;28;20179;-58
2022/04/14 01:22:56;;;;;;;9.00;7.20;;;;;;;10.76;51.41;99999.66;5089171;28;20570;-60
2022/04/14 01:25:25;;;;;;;11.23;8.17;;;;;;;10.57;53.01;100006.06;5087916;28;20251;-60
2022/04/14 01:27:52;;;;;;;15.20;8.63;;;;;;;10.13;55.52;100006.63;5089557;28;20198;-60
2022/04/14 01:30:20;;;;;;;10.77;8.83;;;;;;;9.83;57.17;100006.63;5080106;28;20569;-60
2022/04/14 01:32:46;;;;;;;10.10;8.53;;;;;;;9.62;57.81;100015.44;5086944;28;20572;-60
2022/04/14 01:35:15;;;;;;;13.03;9.43;;;;;;;9.53;58.70;100012.63;5073081;28;20187;-60
2022/04/14 01:37:42;;;;;;;12.73;9.27;;;;;;;9.28;59.11;100000.81;5072777;28;20188;-61
2022/04/14 01:40:11;;;;;;;11.53;10.33;;;;;;;9.28;59.49;100017.06;5072720;28;20281;-61
2022/04/14 01:42:39;;;;;;;14.93;10.40;;;;;;;9.11;60.21;99995.16;5073378;28;20306;-61
2022/04/14 01:45:09;;;;;;;11.80;10.57;;;;;;;9.20;60.49;100023.63;5087985;28;20696;-60
2022/04/14 01:47:40;;;;;;;16.67;9.97;;;;;;;9.02;61.42;100027.31;5092981;28;20202;-60
2022/04/14 01:50:09;;;;;;;13.00;10.60;;;;;;;8.92;61.84;100015.94;5092761;28;20681;-60
2022/04/14 01:52:36;;;;;;;11.93;10.20;;;;;;;9.05;61.70;100019.72;5093009;28;20644;-60
2022/04/14 01:55:04;;;;;;;14.30;10.00;;;;;;;9.08;61.02;100024.97;5093203;28;20209;-61
2022/04/14 01:57:31;;;;;;;11.67;10.17;;;;;;;8.97;61.08;100001.56;5093114;28;20191;-60
2022/04/14 02:00:00;;;;;;;14.93;9.40;;;;;;;9.17;60.71;100032.94;5093059;28;20183;-60
2022/04/14 02:02:27;;;;;;;14.83;10.10;;;;;;;9.19;60.87;100034.72;5092974;28;20214;-60
2022/04/14 02:04:54;;;;;;;12.87;10.70;;;;;;;9.16;61.60;100033.75;5092778;28;20201;-60
2022/04/14 02:07:21;;;;;;;14.43;10.47;;;;;;;9.04;62.37;100021.44;5092673;28;20191;-61
2022/04/14 02:09:48;;;;;;;13.10;10.40;;;;;;;9.10;62.65;100039.56;5092507;28;20280;-60
2022/04/14 02:12:15;;;;;;;18.97;11.50;;;;;;;9.06;62.76;100039.44;5092597;28;20257;-60
2022/04/14 02:14:43;;;;;;;23.63;11.43;;;;;;;9.04;62.90;100036.81;5092386;28;20234;-60
2022/04/14 02:17:11;;;;;;;16.17;11.47;;;;;;;9.03;62.49;100031.66;5092349;28;20277;-60
2022/04/14 02:19:38;;;;;;;13.40;11.88;;;;;;;9.07;62.26;100034.34;5091707;28;20527;-61
2022/04/14 02:22:05;;;;;;;16.30;11.03;;;;;;;9.12;61.42;100035.34;5092654;28;20748;-60
2022/04/14 02:24:32;;;;;;;13.53;10.83;;;;;;;9.16;61.51;100046.56;5092609;28;20194;-60
2022/04/14 02:26:59;;;;;;;15.17;10.93;;;;;;;9.15;61.97;100044.81;5092426;28;20665;-60
2022/04/14 02:29:26;;;;;;;12.83;10.73;;;;;;;9.07;62.22;100036.91;5092231;28;20190;-60
2022/04/14 02:31:57;;;;;;;13.87;10.63;;;;;;;8.78;61.47;100043.69;5092203;28;20237;-58
2022/04/14 02:34:26;;;;;;;11.38;10.18;;;;;;;8.48;61.71;100052.94;5091545;28;20803;-60
2022/04/14 02:36:53;;;;;;;14.43;10.07;;;;;;;8.45;62.78;100052.84;5092545;28;20279;-60
2022/04/14 02:39:20;;;;;;;12.77;9.63;;;;;;;8.41;63.44;100044.97;5092370;28;20199;-61
2022/04/14 02:41:47;;;;;;;11.70;9.43;;;;;;;8.47;63.74;100046.06;5092620;28;20294;-61
2022/04/14 02:44:14;;;;;;;11.27;8.80;;;;;;;8.49;63.33;100041.00;5091257;28;20195;-60
2022/04/14 02:46:40;;;;;;;12.97;10.17;;;;;;;8.51;63.06;100037.69;5092136;28;20200;-61
2022/04/14 02:49:07;;;;;;;11.87;9.87;;;;;;;7.87;63.80;99987.66;5092002;28;21016;-60
2022/04/14 02:51:35;;;;;;;13.43;9.23;;;;;;;8.02;63.90;100047.03;5091738;28;20225;-60
2022/04/14 02:54:02;;;;;;;9.67;8.60;;;;;;;8.09;63.72;100042.19;5091656;28;20202;-60
2022/04/14 02:56:29;;;;;;;11.90;9.10;;;;;;;8.14;63.70;100035.53;5091656;28;20561;-60
2022/04/14 02:58:56;;;;;;;12.60;10.37;;;;;;;8.11;63.64;100029.41;5091824;28;20198;-60
2022/04/14 03:01:23;;;;;;;12.53;9.03;;;;;;;8.12;64.01;100041.41;5091735;28;20182;-61
2022/04/14 03:03:50;;;;;;;12.27;9.70;;;;;;;8.14;63.44;100037.22;5092056;28;20291;-60
2022/04/14 03:06:17;;;;;;;16.33;10.50;;;;;;;7.92;64.55;100034.72;5097348;28;20202;-60
2022/04/14 03:08:45;;;;;;;11.03;9.33;;;;;;;7.94;64.03;100028.00;5091463;28;20902;-60
2022/04/14 03:11:13;;;;;;;12.93;9.53;;;;;;;7.85;64.49;100032.78;5091454;28;20217;-61
2022/04/14 03:13:40;;;;;;;12.93;9.40;;;;;;;7.98;63.76;100037.50;5091329;28;20683;-60
2022/04/14 03:16:07;;;;;;;11.53;9.57;;;;;;;8.11;63.81;100032.84;5091532;28;20281;-61
2022/04/14 03:18:34;;;;;;;13.75;9.98;;;;;;;8.16;63.00;100035.56;5090699;28;20447;-61
2022/04/14 03:21:01;;;;;;;11.63;9.10;;;;;;;8.19;62.21;100041.66;5091151;28;20197;-60
2022/04/14 03:23:28;;;;;;;12.77;8.30;;;;;;;8.15;62.87;100047.50;5091277;28;20222;-60
2022/04/14 03:25:56;;;;;;;11.23;9.07;;;;;;;8.24;62.27;100042.69;5090938;28;20201;-60
2022/04/14 03:28:23;;;;;;;10.03;8.27;;;;;;;8.34;61.15;100046.47;5091122;28;20223;-61
2022/04/14 03:30:50;;;;;;;13.27;8.37;;;;;;;8.39;61.67;100051.75;5090912;28;20280;-61
2022/04/14 03:33:17;;;;;;;15.33;9.50;;;;;;;8.39;62.52;100060.31;5090933;28;20492;-61
2022/04/14 03:35:44;;;;;;;14.33;9.20;;;;;;;8.42;63.00;100056.97;5091159;28;20195;-61
2022/04/14 03:38:10;;;;;;;14.73;9.00;;;;;;;8.40;63.45;100061.19;5091038;28;20273;-61
2022/04/14 03:40:37;;;;;;;11.23;9.10;;;;;;;8.38;63.68;100055.16;5090355;28;20201;-60
2022/04/14 03:43:06;;;;;;;12.70;8.73;;;;;;;8.36;62.31;100067.88;5090078;28;20194;-61
2022/04/14 03:45:33;;;;;;;9.47;7.57;;;;;;;8.29;61.78;100068.50;5070562;28;20205;-60
2022/04/14 03:47:59;;;;;;;9.37;8.23;;;;;;;8.27;61.24;100067.56;5070320;28;20183;-61
2022/04/14 03:50:26;;;;;;;10.77;8.47;;;;;;;8.23;61.65;100071.69;5070307;28;20191;-61
2022/04/14 03:52:53;;;;;;;13.03;8.53;;;;;;;8.22;61.98;100076.72;5070156;28;20218;-61
2022/04/14 03:55:20;;;;;;;13.20;8.87;;;;;;;8.17;62.49;100083.38;5069963;28;20199;-61
2022/04/14 03:57:47;;;;;;;12.27;9.03;;;;;;;8.14;62.60;100079.03;5070489;28;20282;-62
2022/04/14 04:00:16;;;;;;;11.37;8.67;;;;;;;8.12;61.92;100082.34;5070049;28;20290;-60
2022/04/14 04:02:43;;;;;;;10.97;8.90;;;;;;;8.06;61.09;100089.81;5070222;28;20195;-61
2022/04/14 04:05:11;;;;;;;18.40;9.80;;;;;;;7.99;60.44;100087.88;5070092;28;20194;-60
2022/04/14 04:07:38;;;;;;;16.13;9.90;;;;;;;7.98;60.18;100092.09;5069263;28;20645;-60
2022/04/14 04:10:06;;;;;;;15.17;8.90;;;;;;;8.00;60.01;100102.38;5069714;28;20206;-60
2022/04/14 04:12:33;;;;;;;13.20;10.23;;;;;;;8.02;59.62;100100.78;5069272;28;20218;-60
2022/04/14 04:15:00;;;;;;;17.90;10.23;;;;;;;8.00;59.97;100098.16;5069558;28;20225;-60
2022/04/14 04:17:28;;;;;;;20.40;11.17;;;;;;;8.02;60.41;100101.63;5069979;28;20194;-60
2022/04/14 04:19:56;;;;;;;17.77;12.65;;;;;;;8.03;60.36;100094.81;5068883;28;20452;-60
2022/04/14 04:22:22;;;;;;;18.40;10.37;;;;;;;7.96;60.14;100111.66;5070046;28;20180;-60
2022/04/14 04:24:49;;;;;;;16.20;10.20;;;;;;;7.97;59.14;100108.25;5069949;28;20320;-60
2022/04/14 04:27:16;;;;;;;17.30;10.97;;;;;;;7.99;59.43;100106.66;5069895;28;20551;-60
2022/04/14 04:29:43;;;;;;;14.67;10.27;;;;;;;8.09;59.17;100112.97;5077768;28;20715;-58
2022/04/14 04:32:10;;;;;;;15.70;9.23;;;;;;;8.18;59.13;100118.41;5089911;28;20646;-59
2022/04/14 04:34:39;;;;;;;19.33;12.65;;;;;;;8.29;59.02;100117.13;5086541;28;20479;-56
2022/04/14 04:37:06;;;;;;;14.57;9.73;;;;;;;8.35;58.20;100117.31;5085121;28;20205;-57
2022/04/14 04:39:33;;;;;;;14.97;10.00;;;;;;;8.38;57.77;100116.59;5089557;28;20547;-57
2022/04/14 04:42:00;;;;;;;9.93;8.43;;;;;;;8.38;57.18;100127.69;5087584;28;20183;-59
2022/04/14 04:44:27;;;;;;;12.30;9.07;;;;;;;8.48;56.94;100139.13;5089206;28;20218;-60
2022/04/14 04:46:54;;;;;;;13.40;9.30;;;;;;;8.48;56.42;100134.88;5089141;28;20196;-60
2022/04/14 04:49:21;;;;;;;14.43;9.23;;;;;;;8.50;54.69;100138.34;5103342;28;20202;-59
2022/04/14 04:51:49;;;;;;;12.83;9.33;;;;;;;8.55;54.59;100131.69;5101018;28;20221;-60
2022/04/14 04:54:16;;;;;;;15.20;10.83;;;;;;;8.60;54.29;100134.41;5087569;28;20202;-60
2022/04/14 04:56:43;;;;;;;20.30;10.87;;;;;;;8.63;54.48;100131.97;5089203;28;20202;-59
2022/04/14 04:59:09;;;;;;;19.60;11.93;;;;;;;8.68;54.73;100123.59;5089480;28;20215;-60
2022/04/14 05:01:36;;;;;;;22.10;13.20;;;;;;;8.74;54.49;100131.50;5089595;28;20190;-59
2022/04/14 05:04:03;;;;;;;19.20;12.23;;;;;;;8.75;54.13;100140.94;5088719;28;20277;-58
2022/04/14 05:06:30;;;;;;;24.63;11.60;;;;;;;8.82;54.02;100139.44;5089672;28;20273;-58
2022/04/14 05:08:58;;;;;;;19.00;12.40;;;;;;;8.88;53.81;100135.41;5093066;28;20203;-59
2022/04/14 05:11:25;;;;;;;18.60;11.33;;;;;;;8.94;53.61;100128.72;5092747;28;20205;-59
2022/04/14 05:13:52;;;;;;;16.80;10.43;;;;;;;9.02;52.96;100128.16;5090174;28;20700;-59
2022/04/14 05:16:19;;;;;;;14.73;9.60;;;;;;;9.11;52.56;100135.28;5092980;28;20183;-59
2022/04/14 05:18:46;;;;;;;12.90;8.57;;;;;;;9.26;52.15;100135.75;5092503;28;20447;-60
2022/04/14 05:21:13;;;;;;;19.80;9.98;;;;;;;9.43;51.97;100129.47;5089704;28;20440;-60
2022/04/14 05:23:40;;;;;;;14.70;9.27;;;;;;;9.61;50.99;100132.59;5092864;28;20646;-60
2022/04/14 05:26:08;;;;;;;13.80;8.97;;;;;;;9.69;51.12;100131.13;5093219;28;20187;-61
2022/04/14 05:28:35;;;;;;;13.90;8.23;;;;;;;9.81;51.12;100136.63;5093445;28;20507;-61
2022/04/14 05:31:02;;;;;;;10.47;7.93;;;;;;;9.94;50.66;100125.03;5093197;28;20198;-60
2022/04/14 05:33:29;;;;;;;12.83;8.23;;;;;;;9.93;50.63;100136.97;5087688;28;20670;-60
2022/04/14 05:35:56;;;;;;;12.75;9.30;;;;;;;9.99;50.77;100131.16;5084282;28;20787;-60
2022/04/14 05:38:24;;;;;;;8.90;7.90;;;;;;;10.16;50.25;100123.97;5072783;28;20728;-60
2022/04/14 05:40:51;;;;;;;15.40;9.03;;;;;;;10.30;50.34;100127.78;5073110;28;20180;-60
2022/04/14 05:43:21;;;;;;;9.87;8.87;;;;;;;10.37;49.94;100133.13;5074080;28;20195;-60
2022/04/14 05:45:49;;;;;;;10.47;7.93;;;;;;;10.35;50.67;100129.66;5091999;28;20194;-61
2022/04/14 05:48:17;;;;;;;12.90;8.50;;;;;;;10.50;50.84;100129.16;5091784;28;20218;-60
2022/04/14 05:50:45;;;;;;;16.57;9.20;;;;;;;10.57;50.62;100133.66;5092431;28;20183;-60
2022/04/14 05:53:12;;;;;;;12.50;8.57;;;;;;;10.66;50.63;100134.75;5091448;28;20202;-61
2022/04/14 05:55:42;;;;;;;12.80;8.63;;;;;;;10.73;50.83;100134.91;5089393;28;20277;-61
2022/04/14 05:58:09;;;;;;;8.57;7.67;;;;;;;10.76;50.88;100135.88;5091537;28;20290;-61
2022/04/14 06:00:38;;;;;;;11.20;8.27;;;;;;;10.74;50.95;100116.94;5091594;28;20202;-61
2022/04/14 06:03:05;;;;;;;12.50;8.23;;;;;;;10.92;49.78;100145.72;5090025;28;20579;-60
2022/04/14 06:05:33;;;;;;;10.97;8.30;;;;;;;10.96;49.88;100142.38;5091689;28;20225;-60
2022/04/14 06:08:00;;;;;;;10.70;9.00;;;;;;;11.01;50.16;100135.66;5089565;28;20191;-60
2022/04/14 06:10:28;;;;;;;13.57;9.13;;;;;;;11.13;50.20;100138.50;5102454;28;20556;-61
2022/04/14 06:12:55;;;;;;;11.87;9.20;;;;;;;11.18;49.92;100139.50;5097144;28;20210;-61
2022/04/14 06:15:22;;;;;;;10.75;9.65;;;;;;;11.22;50.06;100143.00;5091395;28;20425;-60
2022/04/14 06:17:51;;;;;;;9.93;8.90;;;;;;;11.34;49.44;100139.88;5091670;28;20190;-61
2022/04/14 06:20:18;;;;;;;10.17;8.50;;;;;;;11.38;48.77;100129.66;5084736;28;20255;-61
2022/04/14 06:22:45;;;;;;;16.60;10.70;;;;;;;11.52;49.23;100146.31;5076809;28;20219;-61
2022/04/14 06:25:13;;;;;;;12.83;9.57;;;;;;;11.54;49.05;100144.63;5071654;28;20195;-61
2022/04/14 06:27:41;;;;;;;13.50;10.40;;;;;;;11.57;49.93;100155.00;5071593;28;20655;-59
2022/04/14 06:30:10;;;;;;;16.30;9.97;;;;;;;11.65;49.96;100148.31;5071750;28;20191;-63
2022/04/14 06:32:37;;;;;;;14.60;10.50;;;;;;;11.71;49.97;100152.75;5071715;28;20586;-62
2022/04/14 06:35:07;;;;;;;12.43;10.07;;;;;;;11.75;50.19;100157.16;5072235;28;20183;-65
2022/04/14 06:37:34;;;;;;;11.27;9.03;;;;;;;11.80;50.02;100156.41;5071983;28;20634;-64
2022/04/14 06:40:02;;;;;;;11.30;9.87;;;;;;;11.74;49.84;100138.25;5072285;28;20198;-63
2022/04/14 06:42:29;;;;;;;14.93;11.33;;;;;;;12.01;49.34;100157.69;5071500;28;20352;-63
2022/04/14 06:44:58;;;;;;;14.10;10.53;;;;;;;11.94;49.66;100150.69;5071308;28;20283;-61
2022/04/14 06:47:26;;;;;;;12.57;9.63;;;;;;;12.06;49.35;100150.97;5071754;28;20214;-60
2022/04/14 06:49:53;;;;;;;11.40;8.70;;;;;;;12.18;47.79;100164.94;5071308;28;20274;-61
2022/04/14 06:52:21;;;;;;;10.63;8.80;;;;;;;12.15;47.44;100140.81;5071136;28;20203;-60
2022/04/14 06:54:48;;;;;;;12.57;9.30;;;;;;;12.37;47.38;100168.75;5071042;28;20196;-61
2022/04/14 06:57:15;;;;;;;10.20;8.47;;;;;;;12.43;47.46;100166.31;5071086;28;20195;-61
2022/04/14 06:59:42;;;;;;;13.43;10.17;;;;;;;12.45;47.76;100169.75;5071272;28;20200;-61
2022/04/14 07:02:09;;;;;;;8.87;7.97;;;;;;;12.47;47.03;100169.81;5083063;28;20195;-61
2022/04/14 07:04:36;;;;;;;9.50;6.70;;;;;;;12.52;46.64;100176.78;5091248;28;20230;-61
2022/04/14 07:07:04;;;;;;;11.30;7.57;;;;;;;12.56;46.50;100180.28;5091459;28;20264;-61
2022/04/14 07:09:33;;;;;;;9.40;7.83;;;;;;;12.61;47.04;100174.38;5090848;28;21009;-61
2022/04/14 07:12:01;;;;;;;13.07;8.60;;;;;;;12.66;47.06;100180.47;5089481;28;20207;-61
2022/04/14 07:14:29;;;;;;;11.50;9.00;;;;;;;12.78;46.81;100172.97;5086259;28;20451;-61
2022/04/14 07:16:55;;;;;;;12.33;8.27;;;;;;;12.92;46.25;100176.69;5101101;28;20204;-61
2022/04/14 07:19:22;;;;;;;9.50;8.13;;;;;;;12.98;46.29;100170.75;5111217;28;20537;-61
2022/04/14 07:21:49;;;;;;;9.70;8.63;;;;;;;13.06;46.64;100171.75;5100820;28;20224;-60
2022/04/14 07:24:16;;;;;;;14.50;9.43;;;;;;;13.17;46.55;100177.13;5091123;28;20195;-61
2022/04/14 07:26:45;;;;;;;11.20;7.87;;;;;;;13.21;45.75;100174.59;5091173;28;20195;-60
2022/04/14 07:29:12;;;;;;;12.40;8.98;;;;;;;13.35;45.60;100167.13;5090015;28;20455;-60
2022/04/14 07:31:40;;;;;;;11.63;9.23;;;;;;;13.36;45.50;100179.16;5090715;28;20282;-60
2022/04/14 07:34:08;;;;;;;11.50;8.67;;;;;;;13.52;45.79;100171.69;5090878;28;20557;-61
2022/04/14 07:36:35;;;;;;;14.27;9.40;;;;;;;13.63;45.64;100169.25;5091200;28;20194;-61
2022/04/14 07:39:03;;;;;;;10.77;8.33;;;;;;;13.69;45.45;100165.88;5090659;28;20187;-61
2022/04/14 07:41:30;;;;;;;16.47;10.53;;;;;;;13.68;45.61;100159.00;5090357;28;20277;-60
2022/04/14 07:43:58;;;;;;;13.27;9.83;;;;;;;13.77;44.89;100165.16;5088550;28;20271;-61
2022/04/14 07:46:25;;;;;;;13.60;9.20;;;;;;;13.89;44.93;100155.00;5087668;28;20187;-60
2022/04/14 07:48:52;;;;;;;14.57;9.03;;;;;;;13.95;43.79;100154.22;5088007;28;20197;-60
2022/04/14 07:51:19;;;;;;;12.30;9.43;;;;;;;14.14;44.21;100158.78;5088293;28;20235;-60
2022/04/14 07:53:46;;;;;;;14.23;9.23;;;;;;;14.26;43.58;100158.91;5087761;28;20211;-60
2022/04/14 07:56:13;;;;;;;13.10;9.57;;;;;;;14.43;43.83;100162.59;5088849;28;20216;-61
2022/04/14 07:58:43;;;;;;;14.47;9.60;;;;;;;14.49;43.88;100162.66;5089387;28;20669;-61
2022/04/14 08:01:11;;;;;;;11.50;9.37;;;;;;;14.61;42.61;100154.19;5089931;28;20685;-61
2022/04/14 08:03:39;;;;;;;14.40;8.97;;;;;;;14.71;42.58;100163.75;5089961;28;20189;-63
2022/04/14 08:06:06;;;;;;;14.23;9.40;;;;;;;14.75;42.56;100155.16;5090235;28;20209;-62
2022/04/14 08:08:33;;;;;;;11.50;9.80;;;;;;;14.83;42.40;100153.56;5090384;28;20281;-61
2022/04/14 08:11:03;;;;;;;11.90;8.83;;;;;;;14.96;41.70;100157.09;5090048;28;20188;-60
2022/04/14 08:13:35;;;;;;;12.95;9.40;;;;;;;15.09;41.44;100153.75;5090173;28;20448;-61
2022/04/14 08:16:06;;;;;;;10.13;8.60;;;;;;;15.18;40.75;100157.31;5090626;28;20931;-61
2022/04/14 08:18:39;;;;;;;10.60;8.67;;;;;;;15.11;40.67;100145.16;5090228;28;20577;-61
2022/04/14 08:21:07;;;;;;;10.17;8.57;;;;;;;15.27;40.78;100149.59;5089882;28;20274;-60
2022/04/14 08:23:38;;;;;;;9.87;8.57;;;;;;;15.34;39.43;100145.34;5089680;28;20254;-61
2022/04/14 08:26:08;;;;;;;10.83;8.17;;;;;;;15.23;38.41;100146.97;5090000;28;20230;-60
2022/04/14 08:28:35;;;;;;;9.80;7.68;;;;;;;15.15;38.40;100161.59;5089630;28;20510;-60
2022/04/14 08:31:03;;;;;;;12.80;8.37;;;;;;;15.15;39.17;100148.66;5089729;28;20592;-60
2022/04/14 08:33:30;;;;;;;9.27;8.23;;;;;;;15.24;38.43;100138.38;5089691;28;20219;-60
2022/04/14 08:35:59;;;;;;;9.60;7.87;;;;;;;15.32;38.41;100140.16;5089863;28;20278;-60
2022/04/14 08:38:27;;;;;;;10.53;7.73;;;;;;;15.38;38.27;100137.59;5089589;28;20565;-60
2022/04/14 08:41:00;;;;;;;8.90;8.00;;;;;;;15.42;38.40;100138.50;5088975;28;20192;-61
2022/04/14 08:43:33;;;;;;;9.47;8.10;;;;;;;15.20;38.00;100083.13;5089523;28;20244;-61
2022/04/14 08:46:01;;;;;;;10.47;8.77;;;;;;;15.65;37.92;100139.56;5089560;28;20194;-60
2022/04/14 08:48:29;;;;;;;15.13;8.43;;;;;;;15.70;37.45;100117.13;5089382;28;20206;-60
2022/04/14 08:50:57;;;;;;;17.13;9.23;;;;;;;15.93;37.17;100131.06;5089384;28;20191;-60
2022/04/14 08:53:27;;;;;;;9.37;8.07;;;;;;;15.98;36.65;100128.50;5089575;28;20234;-61
2022/04/14 08:55:56;;;;;;;11.33;8.67;;;;;;;16.01;36.37;100125.06;5089444;28;20661;-60
2022/04/14 08:58:26;;;;;;;11.47;6.97;;;;;;;15.96;35.31;100091.31;5089901;28;20191;-60
2022/04/14 09:00:55;;;;;;;12.00;8.20;;;;;;;16.28;34.43;100112.19;5089728;28;20273;-60
2022/04/14 09:03:25;;;;;;;11.90;8.00;;;;;;;16.50;34.01;100114.88;5089703;28;20235;-60
2022/04/14 09:05:52;;;;;;;10.20;7.77;;;;;;;16.59;33.90;100113.19;5089146;28;20280;-60
2022/04/14 09:08:19;;;;;;;8.63;6.63;;;;;;;16.64;33.00;100112.31;5089110;28;20194;-60
2022/04/14 09:10:48;;;;;;;12.10;8.17;;;;;;;16.50;34.22;100106.22;5089329;28;20201;-60
2022/04/14 09:13:15;;;;;;;11.63;8.73;;;;;;;16.61;34.30;100108.84;5089181;28;20226;-60
2022/04/14 09:15:42;;;;;;;9.23;7.83;;;;;;;16.53;34.19;100096.72;5089193;28;20643;-61
2022/04/14 09:18:09;;;;;;;10.10;8.60;;;;;;;16.67;33.37;100106.28;5089254;28;20190;-60
2022/04/14 09:20:41;;;;;;;8.53;7.07;;;;;;;16.76;32.95;100098.47;5089424;28;20192;-61
2022/04/14 09:23:18;;;;;;;8.47;7.43;;;;;;;16.87;32.77;100099.34;5089211;28;20201;-60
2022/04/14 09:25:47;;;;;;;12.20;6.50;;;;;;;16.95;33.00;100098.50;5089414;28;20226;-60
2022/04/14 09:28:16;;;;;;;7.77;6.73;;;;;;;17.10;31.93;100093.31;5088962;28;20691;-60
2022/04/14 09:30:59;;;;;;;7.17;6.40;;;;;;;17.19;32.12;100086.38;5088718;28;20187;-61
2022/04/14 09:33:26;;;;;;;11.93;6.53;;;;;;;17.22;32.43;100091.56;5088966;28;20253;-60
2022/04/14 09:36:13;;;;;;;10.87;7.00;;;;;;;17.09;31.92;100090.69;5088896;28;20193;-60
2022/04/14 09:38:58;;;;;;;11.07;7.20;;;;;;;17.08;32.39;100084.63;5088865;28;20193;-60
2022/04/14 09:41:34;;;;;;;13.57;7.47;;;;;;;17.36;32.29;100084.63;5089033;28;20223;-60
2022/04/14 09:44:02;;;;;;;10.20;6.53;;;;;;;17.36;32.06;100059.50;5104581;28;20669;-61
2022/04/14 09:46:29;;;;;;;12.10;7.60;;;;;;;17.69;31.79;100069.84;5089269;28;20201;-61
2022/04/14 09:49:07;;;;;;;8.47;6.67;;;;;;;17.85;31.38;100080.19;5088780;28;20281;-62
2022/04/14 09:51:35;;;;;;;9.00;5.73;;;;;;;17.86;30.83;100048.97;5099873;28;20198;-60
2022/04/14 09:54:15;;;;;;;8.33;6.47;;;;;;;17.79;31.13;100067.22;5072099;28;20689;-61
2022/04/14 09:56:48;;;;;;;8.27;6.93;;;;;;;17.81;32.05;100061.13;5093652;28;20226;-60
2022/04/14 09:59:18;;;;;;;10.10;6.50;;;;;;;18.06;31.65;100057.56;5087161;28;20263;-66
2022/04/14 10:01:45;;;;;;;8.77;6.50;;;;;;;18.08;31.33;100050.59;5090889;28;20224;-62
2022/04/14 10:04:30;;;;;;;8.23;6.30;;;;;;;18.22;31.35;100048.78;5093086;28;20252;-67
2022/04/14 10:07:05;;;;;;;7.77;6.50;;;;;;;18.36;31.14;100045.25;5098223;28;20190;-63
2022/04/14 10:09:33;;;;;;;10.27;6.43;;;;;;;18.42;30.81;100045.22;5098542;28;20225;-62
2022/04/14 10:12:01;;;;;;;14.07;8.37;;;;;;;18.60;30.89;100047.69;5092183;28;20304;-61
2022/04/14 10:14:28;;;;;;;8.37;6.03;;;;;;;18.54;29.61;100051.22;5091746;28;20238;-60
2022/04/14 10:16:57;;;;;;;9.13;6.37;;;;;;;18.58;29.70;100044.25;5091586;28;20206;-61
2022/04/14 10:19:24;;;;;;;14.17;6.37;;;;;;;18.64;28.78;100054.63;5091972;28;20240;-61
2022/04/14 10:21:52;;;;;;;6.63;5.93;;;;;;;18.73;29.15;100046.75;5092206;28;20193;-61
2022/04/14 10:24:23;;;;;;;9.83;5.73;;;;;;;18.54;28.20;100047.78;5089503;28;20218;-60
2022/04/14 10:26:51;;;;;;;9.07;6.33;;;;;;;18.62;28.55;100041.59;5090815;28;20604;-60
2022/04/14 10:29:22;;;;;;;9.97;6.57;;;;;;;18.56;28.58;100025.19;5090897;28;20431;-60
2022/04/14 10:31:53;;;;;;;8.23;6.43;;;;;;;18.84;28.19;100042.31;5088900;28;20264;-60
2022/04/14 10:34:22;;;;;;;8.13;5.73;;;;;;;18.98;27.55;100042.22;5090693;28;20199;-60
2022/04/14 10:36:51;;;;;;;6.97;5.67;;;;;;;19.08;27.84;100031.69;5088239;28;20195;-60
2022/04/14 10:39:20;;;;;;;10.93;5.03;;;;;;;19.17;26.75;100041.16;5089242;28;20202;-59
2022/04/14 10:41:51;;;;;;;10.07;6.40;;;;;;;19.06;26.68;100036.06;5090836;28;20255;-59
2022/04/14 10:44:23;;;;;;;6.27;5.40;;;;;;;18.91;25.07;100036.19;5090724;28;20276;-60
2022/04/14 10:46:51;;;;;;;6.63;5.10;;;;;;;18.92;25.68;100022.28;5091397;28;20199;-60
2022/04/14 10:49:24;;;;;;;7.17;5.67;;;;;;;19.05;25.71;100031.72;5089334;28;20217;-57
2022/04/14 10:51:53;;;;;;;8.93;5.20;;;;;;;19.15;25.29;100022.91;5088273;28;20190;-57
2022/04/14 10:54:20;;;;;;;7.00;5.77;;;;;;;19.21;25.23;100027.19;5089756;28;20363;-57
2022/04/14 10:56:50;;;;;;;13.40;6.80;;;;;;;19.25;25.63;100021.09;5090945;28;20248;-57
2022/04/14 10:59:20;;;;;;;5.50;4.73;;;;;;;19.31;23.89;100023.66;5090876;28;20687;-59
2022/04/14 11:01:57;;;;;;;6.20;5.10;;;;;;;19.16;23.86;100002.94;5090402;28;20183;-60
2022/04/14 11:04:29;;;;;;;4.83;4.30;;;;;;;19.35;22.38;100020.97;5087589;28;20561;-60
2022/04/14 11:06:59;;;;;;;5.87;4.80;;;;;;;19.35;22.22;100013.16;5090393;28;20202;-60
2022/04/14 11:09:52;;;;;;;5.07;4.57;;;;;;;19.24;21.97;100012.41;5090295;28;20191;-60
2022/04/14 11:12:20;;;;;;;4.53;4.13;;;;;;;19.17;21.95;99978.63;5090070;28;20278;-60
2022/04/14 11:14:50;;;;;;;6.43;5.15;;;;;;;19.31;23.20;100008.00;5088995;28;20536;-59
2022/04/14 11:18:00;;;;;;;4.83;4.40;;;;;;;19.18;22.22;100009.88;5089752;28;20661;-59
2022/04/14 11:20:56;;;;;;;6.23;5.60;;;;;;;19.45;25.17;99995.69;5089488;28;20198;-59
2022/04/14 11:23:29;;;;;;;8.63;6.53;;;;;;;19.53;23.17;99999.06;5089787;28;20202;-61
2022/04/14 11:26:09;;;;;;;5.67;4.33;;;;;;;19.59;22.48;100004.22;5089028;28;20194;-60
2022/04/14 11:28:37;;;;;;;14.23;7.60;;;;;;;19.67;22.48;99998.91;5088964;28;20439;-60